createdAt,value
2023-05-19T00:02:40.023Z,102615.25
2023-05-19T00:05:46.262Z,102604.84
2023-05-19T00:08:50.130Z,102605.06
2023-05-19T00:11:51.934Z,102607.00
2023-05-19T00:14:53.811Z,102600.06
2023-05-19T00:17:55.606Z,102601.94
2023-05-19T00:20:57.306Z,102601.19
2023-05-19T00:23:59.213Z,102605.69
2023-05-19T00:27:00.867Z,102600.53
2023-05-19T00:30:02.508Z,102604.28
2023-05-19T00:33:04.183Z,102608.88
2023-05-19T00:36:06.707Z,102613.41
2023-05-19T00:39:08.428Z,102617.06
2023-05-19T00:42:10.129Z,102609.19
2023-05-19T00:45:11.713Z,102611.06
2023-05-19T00:48:13.359Z,102602.31
2023-05-19T00:51:17.158Z,102606.88
2023-05-19T00:54:20.693Z,102606.13
2023-05-19T00:57:22.610Z,102597.38
2023-05-19T01:00:24.730Z,102592.22
2023-05-19T01:03:26.642Z,102590.63
2023-05-19T01:06:29.658Z,102588.00
2023-05-19T01:09:32.295Z,102591.59
2023-05-19T01:12:34.939Z,102598.75
2023-05-19T01:16:13.589Z,102593.50
2023-05-19T01:19:41.644Z,102592.75
2023-05-19T01:22:58.032Z,102606.13
2023-05-19T01:26:14.847Z,102600.06
2023-05-19T01:29:49.731Z,102598.38
2023-05-19T01:32:54.165Z,102594.09
2023-05-19T01:35:56.090Z,102595.06
2023-05-19T01:38:59.592Z,102589.00
2023-05-19T01:42:01.922Z,102584.66
2023-05-19T01:45:10.423Z,102581.28
2023-05-19T01:48:13.368Z,102585.84
2023-05-19T01:51:14.971Z,102593.88
2023-05-19T01:54:16.595Z,102585.97
2023-05-19T01:57:55.700Z,102586.78
2023-05-19T02:01:05.750Z,102588.63
2023-05-19T02:04:18.712Z,102593.91
2023-05-19T02:07:50.381Z,102598.34
2023-05-19T02:10:57.810Z,102587.81
2023-05-19T02:14:02.952Z,102591.50
2023-05-19T02:17:05.546Z,102588.16
2023-05-19T02:20:09.243Z,102587.41
2023-05-19T02:23:10.839Z,102584.00
2023-05-19T02:26:12.496Z,102583.19
2023-05-19T02:29:14.201Z,102584.13
2023-05-19T02:32:15.979Z,102598.28
2023-05-19T02:35:17.800Z,102583.41
2023-05-19T02:38:19.403Z,102587.94
2023-05-19T02:41:22.084Z,102579.19
2023-05-19T02:44:23.639Z,102582.75
2023-05-19T02:47:25.421Z,102589.00
2023-05-19T02:50:26.963Z,102585.53
2023-05-19T02:53:28.571Z,102591.75
2023-05-19T02:56:30.134Z,102589.94
2023-05-19T02:59:31.712Z,102588.16
2023-05-19T03:02:34.275Z,102583.75
2023-05-19T03:05:36.330Z,102582.81
2023-05-19T03:08:39.401Z,102584.63
2023-05-19T03:11:43.176Z,102588.19
2023-05-19T03:14:44.725Z,102577.69
2023-05-19T03:17:46.462Z,102579.47
2023-05-19T03:20:48.091Z,102570.75
2023-05-19T03:23:49.667Z,102572.56
2023-05-19T03:26:51.863Z,102574.34
2023-05-19T03:29:53.901Z,102572.63
2023-05-19T03:32:55.530Z,102575.34
2023-05-19T03:35:57.796Z,102568.34
2023-05-19T03:38:59.444Z,102575.41
2023-05-19T03:42:01.133Z,102579.00
2023-05-19T03:45:03.554Z,102576.44
2023-05-19T03:48:06.127Z,102580.03
2023-05-19T03:51:09.056Z,102580.16
2023-05-19T03:54:10.707Z,102588.16
2023-05-19T03:57:12.340Z,102586.44
2023-05-19T04:00:14.608Z,102584.72
2023-05-19T04:03:16.286Z,102586.53
2023-05-19T04:06:19.157Z,102583.00
2023-05-19T04:09:21.769Z,102583.88
2023-05-19T04:12:23.639Z,102589.22
2023-05-19T04:15:25.723Z,102585.75
2023-05-19T04:18:29.075Z,102595.50
2023-05-19T04:21:31.020Z,102597.28
2023-05-19T04:24:33.691Z,102595.53
2023-05-19T04:27:39.043Z,102584.97
2023-05-19T04:30:42.528Z,102591.19
2023-05-19T04:33:44.107Z,102584.16
2023-05-19T04:36:45.762Z,102581.47
2023-05-19T04:39:48.324Z,102588.47
2023-05-19T04:42:52.223Z,102590.22
2023-05-19T04:45:54.736Z,102583.16
2023-05-19T04:48:57.370Z,102589.28
2023-05-19T04:51:58.961Z,102587.41
2023-05-19T04:55:00.578Z,102597.09
2023-05-19T04:58:02.191Z,102593.69
2023-05-19T05:01:04.017Z,102584.94
2023-05-19T05:04:06.517Z,102585.81
2023-05-19T05:07:08.617Z,102591.09
2023-05-19T05:10:10.810Z,102597.22
2023-05-19T05:13:12.704Z,102578.66
2023-05-19T05:16:14.872Z,102580.28
2023-05-19T05:19:16.964Z,102576.56
2023-05-19T05:22:18.844Z,102588.75
2023-05-19T05:25:21.086Z,102588.63
2023-05-19T05:28:22.839Z,102588.53
2023-05-19T05:31:24.407Z,102584.91
2023-05-19T05:34:26.072Z,102583.00
2023-05-19T05:37:28.043Z,102593.19
2023-05-19T05:40:29.882Z,102590.88
2023-05-19T05:43:31.560Z,102590.03
2023-05-19T05:46:33.317Z,102579.81
2023-05-19T05:49:38.216Z,102584.06
2023-05-19T05:52:41.513Z,102583.34
2023-05-19T05:55:43.676Z,102587.97
2023-05-19T05:58:45.434Z,102589.59
2023-05-19T06:01:47.157Z,102587.03
2023-05-19T06:04:49.049Z,102581.88
2023-05-19T06:07:50.648Z,102584.75
2023-05-19T06:10:52.226Z,102579.56
2023-05-19T06:13:53.874Z,102576.06
2023-05-19T06:16:55.717Z,102577.00
2023-05-19T06:19:57.452Z,102574.25
2023-05-19T06:23:00.442Z,102575.91
2023-05-19T06:26:02.106Z,102578.47
2023-05-19T06:29:03.778Z,102582.75
2023-05-19T06:32:05.470Z,102578.25
2023-05-19T06:35:07.513Z,102577.13
2023-05-19T06:38:09.239Z,102579.59
2023-05-19T06:41:10.882Z,102585.53
2023-05-19T06:44:12.479Z,102585.31
2023-05-19T06:47:14.149Z,102577.03
2023-05-19T06:50:15.926Z,102582.94
2023-05-19T06:53:20.052Z,102590.63
2023-05-19T06:56:22.946Z,102598.25
2023-05-19T06:59:24.633Z,102598.75
2023-05-19T07:02:26.244Z,102595.75
2023-05-19T07:05:27.881Z,102594.50
2023-05-19T07:08:29.581Z,102595.97
2023-05-19T07:11:31.290Z,102591.09
2023-05-19T07:14:32.988Z,102593.34
2023-05-19T07:17:34.665Z,102593.69
2023-05-19T07:20:36.335Z,102600.38
2023-05-19T07:23:37.922Z,102597.72
2023-05-19T07:26:40.486Z,102592.03
2023-05-19T07:29:42.120Z,102592.59
2023-05-19T07:32:43.746Z,102596.00
2023-05-19T07:35:46.335Z,102597.50
2023-05-19T07:38:48.172Z,102598.97
2023-05-19T07:41:52.871Z,102595.94
2023-05-19T07:44:54.447Z,102588.50
2023-05-19T07:47:56.337Z,102589.84
2023-05-19T07:50:57.957Z,102589.63
2023-05-19T07:53:59.618Z,102585.75
2023-05-19T07:57:01.238Z,102590.69
2023-05-19T08:00:02.914Z,102583.78
2023-05-19T08:03:04.722Z,102582.31
2023-05-19T08:06:06.428Z,102579.19
2023-05-19T08:09:08.224Z,102574.28
2023-05-19T08:12:09.847Z,102575.53
2023-05-19T08:15:14.050Z,102575.94
2023-05-19T08:18:15.750Z,102580.84
2023-05-19T08:21:17.459Z,102567.06
2023-05-19T08:24:19.110Z,102570.25
2023-05-19T08:27:20.841Z,102575.13
2023-05-19T08:30:22.493Z,102579.28
2023-05-19T08:33:24.250Z,102574.38
2023-05-19T08:36:25.980Z,102569.44
2023-05-19T08:39:27.667Z,102570.72
2023-05-19T08:42:29.339Z,102569.25
2023-05-19T08:45:31.679Z,102569.56
2023-05-19T08:48:36.524Z,102566.28
2023-05-19T08:52:02.399Z,102556.06
2023-05-19T08:55:17.140Z,102551.19
2023-05-19T08:58:20.815Z,102549.22
2023-05-19T09:01:22.966Z,102548.03
2023-05-19T09:04:29.828Z,102542.38
2023-05-19T09:07:34.855Z,102542.97
2023-05-19T09:10:36.468Z,102539.91
2023-05-19T09:13:38.397Z,102547.63
2023-05-19T09:16:40.628Z,102549.91
2023-05-19T09:19:48.206Z,102548.47
2023-05-19T09:22:50.642Z,102545.38
2023-05-19T09:25:53.517Z,102530.84
2023-05-19T09:28:58.247Z,102526.78
2023-05-19T09:32:06.693Z,102528.00
2023-05-19T09:35:08.791Z,102533.81
2023-05-19T09:38:18.055Z,102535.19
2023-05-19T09:41:20.030Z,102535.81
2023-05-19T09:44:31.361Z,102520.34
2023-05-19T09:47:38.375Z,102518.72
2023-05-19T09:50:40.309Z,102525.00
2023-05-19T09:53:42.184Z,102507.16
2023-05-19T09:56:44.318Z,102500.84
2023-05-19T09:59:46.451Z,102505.13
2023-05-19T10:02:48.764Z,102499.50
2023-05-19T10:05:51.232Z,102498.50
2023-05-19T10:08:53.246Z,102496.59
2023-05-19T10:11:56.475Z,102496.63
2023-05-19T10:14:59.467Z,102489.34
2023-05-19T10:18:03.112Z,102488.38
2023-05-19T10:21:06.345Z,102492.56
2023-05-19T10:24:08.062Z,102493.03
2023-05-19T10:27:14.234Z,102490.72
2023-05-19T10:30:20.634Z,102478.94
2023-05-19T10:33:37.245Z,102489.81
2023-05-19T10:36:48.763Z,102481.75
2023-05-19T10:39:51.486Z,102486.44
2023-05-19T10:43:18.062Z,102485.31
2023-05-19T10:46:24.063Z,102483.50
2023-05-19T10:49:25.816Z,102478.50
2023-05-19T10:52:30.187Z,102475.06
2023-05-19T10:55:48.269Z,102467.84
2023-05-19T10:58:50.650Z,102457.63
2023-05-19T11:01:52.308Z,102465.97
2023-05-19T11:04:56.388Z,102458.56
2023-05-19T11:08:06.113Z,102471.31
2023-05-19T11:11:17.738Z,102468.06
2023-05-19T11:14:26.204Z,102462.44
2023-05-19T11:17:29.396Z,102460.31
2023-05-19T11:20:35.242Z,102454.78
2023-05-19T11:23:39.893Z,102449.97
2023-05-19T11:26:43.254Z,102461.50
2023-05-19T11:29:45.124Z,102460.56
2023-05-19T11:32:50.716Z,102454.25
2023-05-19T11:35:54.320Z,102467.50
2023-05-19T11:38:57.076Z,102459.41
2023-05-19T11:41:58.718Z,102459.53
2023-05-19T11:45:00.435Z,102446.41
2023-05-19T11:48:03.575Z,102457.50
2023-05-19T11:51:06.694Z,102446.50
2023-05-19T11:54:08.294Z,102450.56
2023-05-19T11:57:14.227Z,102432.63
2023-05-19T12:00:15.939Z,102431.75
2023-05-19T12:03:21.936Z,102441.88
2023-05-19T12:06:23.677Z,102452.66
2023-05-19T12:09:25.566Z,102450.81
2023-05-19T12:12:29.600Z,102450.50
2023-05-19T12:15:32.610Z,102445.28
2023-05-19T12:18:37.903Z,102437.66
2023-05-19T12:21:39.774Z,102442.72
2023-05-19T12:24:43.253Z,102433.50
2023-05-19T12:27:45.318Z,102428.97
2023-05-19T12:30:49.686Z,102431.38
2023-05-19T12:33:52.029Z,102421.31
2023-05-19T12:36:53.728Z,102415.97
2023-05-19T12:39:56.314Z,102422.94
2023-05-19T12:42:59.341Z,102406.59
2023-05-19T12:46:13.297Z,102419.13
2023-05-19T12:49:14.928Z,102405.44
2023-05-19T12:52:16.528Z,102405.69
2023-05-19T12:55:20.519Z,102411.47
2023-05-19T12:58:22.866Z,102415.97
2023-05-19T13:01:24.540Z,102411.41
2023-05-19T13:04:27.308Z,102406.88
2023-05-19T13:07:30.280Z,102410.31
2023-05-19T13:10:32.953Z,102399.91
2023-05-19T13:13:34.855Z,102391.91
2023-05-19T13:16:36.441Z,102393.88
2023-05-19T13:19:38.079Z,102392.56
2023-05-19T13:22:39.869Z,102387.59
2023-05-19T13:25:42.355Z,102389.19
2023-05-19T13:28:44.007Z,102383.81
2023-05-19T13:31:45.818Z,102380.75
2023-05-19T13:34:47.758Z,102379.13
2023-05-19T13:37:49.992Z,102385.56
2023-05-19T13:40:51.543Z,102374.09
2023-05-19T13:43:53.465Z,102373.34
2023-05-19T13:46:55.082Z,102377.69
2023-05-19T13:49:56.720Z,102377.69
2023-05-19T13:52:58.394Z,102374.78
2023-05-19T13:56:01.176Z,102376.75
2023-05-19T13:59:04.138Z,102375.69
2023-05-19T14:02:07.650Z,102376.25
2023-05-19T14:05:10.268Z,102363.28
2023-05-19T14:08:12.376Z,102360.53
2023-05-19T14:11:21.971Z,102355.00
2023-05-19T14:14:24.446Z,102366.47
2023-05-19T14:17:28.214Z,102362.97
2023-05-19T14:20:29.915Z,102363.31
2023-05-19T14:23:32.137Z,102362.28
2023-05-19T14:26:33.753Z,102356.84
2023-05-19T14:29:35.496Z,102351.88
2023-05-19T14:32:37.140Z,102350.91
2023-05-19T14:35:38.748Z,102347.78
2023-05-19T14:38:40.358Z,102350.34
2023-05-19T14:41:42.081Z,102355.31
2023-05-19T14:44:43.726Z,102356.47
2023-05-19T14:47:46.700Z,102356.09
2023-05-19T14:50:49.287Z,102353.00
2023-05-19T14:53:51.406Z,102349.91
2023-05-19T14:56:53.093Z,102356.06
2023-05-19T14:59:54.680Z,102346.44
2023-05-19T15:02:56.579Z,102331.09
2023-05-19T15:05:58.395Z,102339.91
2023-05-19T15:08:59.979Z,102333.47
2023-05-19T15:12:01.704Z,102334.72
2023-05-19T15:15:03.600Z,102327.91
2023-05-19T15:18:05.284Z,102334.56
2023-05-19T15:21:06.958Z,102339.72
2023-05-19T15:24:08.532Z,102332.13
2023-05-19T15:27:10.348Z,102326.25
2023-05-19T15:30:12.212Z,102329.13
2023-05-19T15:33:13.914Z,102320.59
2023-05-19T15:36:16.765Z,102325.66
2023-05-19T15:39:18.569Z,102325.66
2023-05-19T15:42:20.133Z,102317.91
2023-05-19T15:45:21.882Z,102325.25
2023-05-19T15:48:24.454Z,102321.47
2023-05-19T15:51:26.889Z,102323.81
2023-05-19T15:54:28.526Z,102329.56
2023-05-19T15:57:30.109Z,102333.25
2023-05-19T16:00:31.764Z,102329.63
2023-05-19T16:03:33.761Z,102328.38
2023-05-19T16:06:35.473Z,102326.03
2023-05-19T16:09:37.050Z,102321.59
2023-05-19T16:12:38.650Z,102314.78
2023-05-19T16:15:40.598Z,102311.09
2023-05-19T16:18:44.251Z,102303.25
2023-05-19T16:21:45.923Z,102309.22
2023-05-19T16:24:47.505Z,102308.13
2023-05-19T16:27:49.254Z,102310.28
2023-05-19T16:30:50.860Z,102318.09
2023-05-19T16:33:52.480Z,102312.53
2023-05-19T16:36:54.095Z,102305.22
2023-05-19T16:39:55.829Z,102307.53
2023-05-19T16:42:57.455Z,102312.28
2023-05-19T16:45:59.079Z,102317.78
2023-05-19T16:49:00.765Z,102307.88
2023-05-19T16:52:02.417Z,102314.22
2023-05-19T16:55:04.454Z,102317.25
2023-05-19T16:58:06.096Z,102316.72
2023-05-19T17:01:07.827Z,102311.81
2023-05-19T17:04:09.604Z,102314.72
2023-05-19T17:07:15.747Z,102313.31
2023-05-19T17:10:17.568Z,102305.56
2023-05-19T17:13:19.194Z,102314.81
2023-05-19T17:16:21.404Z,102316.00
2023-05-19T17:19:23.178Z,102314.59
2023-05-19T17:22:25.220Z,102313.25
2023-05-19T17:25:26.869Z,102306.47
2023-05-19T17:28:28.491Z,102305.78
2023-05-19T17:31:30.103Z,102316.78
2023-05-19T17:34:31.717Z,102319.72
2023-05-19T17:37:33.425Z,102314.66
2023-05-19T17:40:35.780Z,102321.13
2023-05-19T17:43:39.075Z,102319.78
2023-05-19T17:46:40.691Z,102322.38
2023-05-19T17:49:42.306Z,102331.00
2023-05-19T17:52:44.339Z,102339.38
2023-05-19T17:55:51.110Z,102336.69
2023-05-19T17:58:52.947Z,102338.63
2023-05-19T18:01:54.831Z,102340.78
2023-05-19T18:04:56.698Z,102342.97
2023-05-19T18:07:59.418Z,102338.78
2023-05-19T18:11:01.948Z,102337.16
2023-05-19T18:14:03.554Z,102327.56
2023-05-19T18:17:05.381Z,102335.84
2023-05-19T18:20:07.745Z,102337.88
2023-05-19T18:23:09.402Z,102339.91
2023-05-19T18:26:13.102Z,102345.50
2023-05-19T18:29:14.744Z,102346.38
2023-05-19T18:32:17.777Z,102351.81
2023-05-19T18:35:21.403Z,102355.69
2023-05-19T18:38:25.895Z,102356.94
2023-05-19T18:41:28.195Z,102355.53
2023-05-19T18:44:30.275Z,102358.94
2023-05-19T18:47:31.966Z,102353.28
2023-05-19T18:50:34.342Z,102359.16
2023-05-19T18:53:36.981Z,102371.19
2023-05-19T18:56:38.626Z,102367.22
2023-05-19T18:59:40.806Z,102363.00
2023-05-19T19:02:42.659Z,102362.44
2023-05-19T19:05:45.172Z,102364.44
2023-05-19T19:08:48.119Z,102364.63
2023-05-19T19:11:50.604Z,102374.53
2023-05-19T19:14:53.560Z,102374.53
2023-05-19T19:17:56.664Z,102393.34
2023-05-19T19:21:00.584Z,102387.28
2023-05-19T19:24:02.908Z,102388.63
2023-05-19T19:27:05.690Z,102392.75
2023-05-19T19:30:09.138Z,102395.53
2023-05-19T19:33:11.894Z,102396.19
2023-05-19T19:36:14.670Z,102398.00
2023-05-19T19:39:17.277Z,102404.97
2023-05-19T19:42:19.974Z,102405.72
2023-05-19T19:45:22.250Z,102400.97
2023-05-19T19:48:23.941Z,102415.59
2023-05-19T19:51:26.005Z,102417.84
2023-05-19T19:54:27.614Z,102422.72
2023-05-19T19:57:31.602Z,102415.81
2023-05-19T20:00:33.466Z,102431.97
2023-05-19T20:03:35.856Z,102426.78
2023-05-19T20:06:38.468Z,102436.66
2023-05-19T20:09:40.068Z,102434.06
2023-05-19T20:12:41.724Z,102433.28
2023-05-19T20:15:44.370Z,102439.69
2023-05-19T20:18:46.040Z,102433.56
2023-05-19T20:21:47.708Z,102432.09
2023-05-19T20:24:49.285Z,102434.00
2023-05-19T20:27:50.893Z,102437.88
2023-05-19T20:30:52.520Z,102430.22
2023-05-19T20:33:54.194Z,102436.59
2023-05-19T20:36:56.355Z,102432.19
2023-05-19T20:39:57.994Z,102433.81
2023-05-19T20:42:59.601Z,102436.34
2023-05-19T20:46:01.664Z,102435.31
2023-05-19T20:49:03.440Z,102441.69
2023-05-19T20:52:05.188Z,102441.00
2023-05-19T20:55:07.135Z,102448.25
2023-05-19T20:58:08.717Z,102435.03
2023-05-19T21:01:10.569Z,102442.19
2023-05-19T21:04:12.208Z,102438.75
2023-05-19T21:07:13.782Z,102441.69
2023-05-19T21:10:15.607Z,102435.41
2023-05-19T21:13:20.473Z,102435.28
2023-05-19T21:16:22.692Z,102442.47
2023-05-19T21:19:24.362Z,102446.97
2023-05-19T21:22:26.783Z,102443.44
2023-05-19T21:25:28.366Z,102447.81
2023-05-19T21:28:29.935Z,102440.50
2023-05-19T21:31:31.869Z,102443.66
2023-05-19T21:34:33.752Z,102441.81
2023-05-19T21:37:36.362Z,102441.94
2023-05-19T21:40:37.967Z,102449.53
2023-05-19T21:43:41.256Z,102450.16
2023-05-19T21:46:43.056Z,102444.53
2023-05-19T21:49:44.658Z,102454.13
2023-05-19T21:52:46.226Z,102460.84
2023-05-19T21:55:47.790Z,102461.28
2023-05-19T21:58:49.360Z,102459.09
2023-05-19T22:01:51.185Z,102457.00
2023-05-19T22:04:52.924Z,102457.50
2023-05-19T22:07:54.562Z,102453.50
2023-05-19T22:10:56.330Z,102458.31
2023-05-19T22:13:58.003Z,102461.31
2023-05-19T22:16:59.632Z,102448.84
2023-05-19T22:20:01.222Z,102450.19
2023-05-19T22:23:03.991Z,102447.75
2023-05-19T22:26:06.088Z,102458.72
2023-05-19T22:29:07.684Z,102460.00
2023-05-19T22:32:12.161Z,102462.09
2023-05-19T22:35:13.975Z,102455.44
2023-05-19T22:38:15.633Z,102451.38
2023-05-19T22:41:17.231Z,102457.09
2023-05-19T22:44:19.603Z,102454.72
2023-05-19T22:47:21.685Z,102460.41
2023-05-19T22:50:23.312Z,102460.66
2023-05-19T22:53:24.978Z,102454.63
2023-05-19T22:56:27.052Z,102450.38
2023-05-19T22:59:29.233Z,102451.38
2023-05-19T23:02:30.908Z,102444.38
2023-05-19T23:05:32.647Z,102449.03
2023-05-19T23:08:34.339Z,102446.50
2023-05-19T23:11:36.040Z,102447.59
2023-05-19T23:14:37.635Z,102452.25
2023-05-19T23:17:39.336Z,102449.63
2023-05-19T23:20:40.938Z,102453.31
2023-05-19T23:23:42.529Z,102442.63
2023-05-19T23:26:44.351Z,102451.66
2023-05-19T23:29:49.394Z,102444.69
2023-05-19T23:32:51.148Z,102442.03
2023-05-19T23:35:54.450Z,102450.97
2023-05-19T23:38:55.989Z,102453.72
2023-05-19T23:41:57.619Z,102458.19
2023-05-19T23:44:59.207Z,102453.78
2023-05-19T23:48:00.981Z,102457.31
2023-05-19T23:51:02.833Z,102459.06
2023-05-19T23:54:04.414Z,102461.72
2023-05-19T23:57:06.253Z,102455.56
